LERS/REU METAR and TAF weather

Enter ICAO airport designator
Station Type Date Time Source
LERS METAR 2019/04/25 01:30 UTC NOAA

LERS 250130Z AUTO 15003KT 090V200 8000 FEW009 BKN013 OVC019 15/14 Q1009


Station Type Date Time Source
LERS Decoded METAR 2019/04/25 01:30 UTC NOAA

Reus / Aeropuerto, Spain (LERS) 41-09N 001-10E 76M
Apr 24, 2019 - 09:30 PM EDT / 2019.04.25 0130 UTC
Wind: from the SSE (150 degrees) at 3 MPH (3 KT) (direction variable):0
Visibility: 4 mile(s):0
Sky conditions: overcast
Temperature: 59 F (15 C)
Dew Point: 57 F (14 C)
Relative Humidity: 93%
Pressure (altimeter): 29.80 in. Hg (1009 hPa)
ob: LERS 250130Z AUTO 15003KT 090V200 8000 FEW009 BKN013 OVC019 15/14 Q1009
cycle: 1

Station Type Date Time Source
LERS TAF 2019/04/24 21:27 UTC NOAA

TAF LERS 242000Z 2421/2521 VRB03KT 9999 SCT018 TX20/2512Z TN11/2506Z PROB40
TEMPO 2421/2509 4000 BR DZ BKN015
BECMG 2506/2508 19005KT PROB40
TEMPO 2510/2517 4000 SHRA FEW030TCU BKN040
BECMG 2515/2517 30010KT

Example: see airport list